sensor_id;sensor_type;location;lat;lon;timestamp;temperature;humidity
22491;DHT22;11412;50.802;4.350;2023-11-21T00:02:04;10.20;99.90
22491;DHT22;11412;50.802;4.350;2023-11-21T00:04:30;10.10;99.90
22491;DHT22;11412;50.802;4.350;2023-11-21T00:06:56;10.10;99.90
22491;DHT22;11412;50.802;4.350;2023-11-21T00:09:21;10.20;99.90
22491;DHT22;11412;50.802;4.350;2023-11-21T00:11:47;10.20;99.90
22491;DHT22;11412;50.802;4.350;2023-11-21T00:14:13;10.20;99.90
22491;DHT22;11412;50.802;4.350;2023-11-21T00:16:41;10.20;99.90
22491;DHT22;11412;50.802;4.350;2023-11-21T00:19:06;10.20;99.90
22491;DHT22;11412;50.802;4.350;2023-11-21T00:21:32;10.30;99.90
22491;DHT22;11412;50.802;4.350;2023-11-21T00:23:58;10.20;99.90
22491;DHT22;11412;50.802;4.350;2023-11-21T00:26:23;10.40;99.90
22491;DHT22;11412;50.802;4.350;2023-11-21T00:28:50;10.20;99.90
22491;DHT22;11412;50.802;4.350;2023-11-21T00:31:16;10.20;99.90
22491;DHT22;11412;50.802;4.350;2023-11-21T00:33:41;10.20;99.90
22491;DHT22;11412;50.802;4.350;2023-11-21T00:36:08;10.30;99.90
22491;DHT22;11412;50.802;4.350;2023-11-21T00:38:38;10.20;99.90
22491;DHT22;11412;50.802;4.350;2023-11-21T00:41:05;10.20;99.90
22491;DHT22;11412;50.802;4.350;2023-11-21T00:43:31;10.10;99.90
22491;DHT22;11412;50.802;4.350;2023-11-21T00:45:59;10.20;99.90
22491;DHT22;11412;50.802;4.350;2023-11-21T00:48:24;10.10;99.90
22491;DHT22;11412;50.802;4.350;2023-11-21T00:50:50;10.10;99.90
22491;DHT22;11412;50.802;4.350;2023-11-21T00:53:16;9.90;99.90
22491;DHT22;11412;50.802;4.350;2023-11-21T00:55:41;9.90;99.90
22491;DHT22;11412;50.802;4.350;2023-11-21T00:58:07;9.80;99.90
22491;DHT22;11412;50.802;4.350;2023-11-21T01:00:33;9.70;99.90
22491;DHT22;11412;50.802;4.350;2023-11-21T01:02:59;9.70;99.90
22491;DHT22;11412;50.802;4.350;2023-11-21T01:05:25;9.60;99.90
22491;DHT22;11412;50.802;4.350;2023-11-21T01:07:52;9.50;99.90
22491;DHT22;11412;50.802;4.350;2023-11-21T01:10:18;9.40;99.90
22491;DHT22;11412;50.802;4.350;2023-11-21T01:12:43;9.40;99.90
22491;DHT22;11412;50.802;4.350;2023-11-21T01:15:09;9.30;99.90
22491;DHT22;11412;50.802;4.350;2023-11-21T01:17:37;9.40;99.90
22491;DHT22;11412;50.802;4.350;2023-11-21T01:20:04;9.30;99.90
22491;DHT22;11412;50.802;4.350;2023-11-21T01:22:38;9.30;99.90
22491;DHT22;11412;50.802;4.350;2023-11-21T01:25:04;9.30;99.90
22491;DHT22;11412;50.802;4.350;2023-11-21T01:27:33;9.30;99.90
22491;DHT22;11412;50.802;4.350;2023-11-21T01:30:00;9.20;99.90
22491;DHT22;11412;50.802;4.350;2023-11-21T01:32:25;9.30;99.90
22491;DHT22;11412;50.802;4.350;2023-11-21T01:34:51;9.30;99.90
22491;DHT22;11412;50.802;4.350;2023-11-21T01:37:17;9.30;99.90
22491;DHT22;11412;50.802;4.350;2023-11-21T01:39:43;9.30;99.90
22491;DHT22;11412;50.802;4.350;2023-11-21T01:42:09;9.50;99.90
22491;DHT22;11412;50.802;4.350;2023-11-21T01:44:35;9.50;99.90
22491;DHT22;11412;50.802;4.350;2023-11-21T01:47:01;9.50;99.90
22491;DHT22;11412;50.802;4.350;2023-11-21T01:49:31;9.50;99.90
22491;DHT22;11412;50.802;4.350;2023-11-21T01:51:59;9.50;99.90
22491;DHT22;11412;50.802;4.350;2023-11-21T01:54:25;9.50;99.90
22491;DHT22;11412;50.802;4.350;2023-11-21T01:56:51;9.60;99.90
22491;DHT22;11412;50.802;4.350;2023-11-21T01:59:21;9.60;99.90
22491;DHT22;11412;50.802;4.350;2023-11-21T02:01:47;9.60;99.90
22491;DHT22;11412;50.802;4.350;2023-11-21T02:04:13;9.60;99.90
22491;DHT22;11412;50.802;4.350;2023-11-21T02:06:39;9.60;99.90
22491;DHT22;11412;50.802;4.350;2023-11-21T02:09:05;9.70;99.90
22491;DHT22;11412;50.802;4.350;2023-11-21T02:11:31;9.70;99.90
22491;DHT22;11412;50.802;4.350;2023-11-21T02:13:59;9.60;99.90
22491;DHT22;11412;50.802;4.350;2023-11-21T02:16:26;9.70;99.90
22491;DHT22;11412;50.802;4.350;2023-11-21T02:18:52;9.70;99.90
22491;DHT22;11412;50.802;4.350;2023-11-21T02:21:18;9.80;99.90
22491;DHT22;11412;50.802;4.350;2023-11-21T02:23:45;9.80;99.90
22491;DHT22;11412;50.802;4.350;2023-11-21T02:26:12;9.90;99.90
22491;DHT22;11412;50.802;4.350;2023-11-21T02:28:39;9.90;99.90
22491;DHT22;11412;50.802;4.350;2023-11-21T02:31:05;9.90;99.90
22491;DHT22;11412;50.802;4.350;2023-11-21T02:33:33;9.90;99.90
22491;DHT22;11412;50.802;4.350;2023-11-21T02:36:00;10.00;99.90
22491;DHT22;11412;50.802;4.350;2023-11-21T02:38:26;10.00;99.90
22491;DHT22;11412;50.802;4.350;2023-11-21T02:40:51;9.90;99.90
22491;DHT22;11412;50.802;4.350;2023-11-21T02:43:17;10.00;99.90
22491;DHT22;11412;50.802;4.350;2023-11-21T02:45:43;10.00;99.90
22491;DHT22;11412;50.802;4.350;2023-11-21T02:48:08;10.00;99.90
22491;DHT22;11412;50.802;4.350;2023-11-21T02:50:34;10.10;99.90
22491;DHT22;11412;50.802;4.350;2023-11-21T02:53:01;10.10;99.90
22491;DHT22;11412;50.802;4.350;2023-11-21T02:55:27;10.30;99.90
22491;DHT22;11412;50.802;4.350;2023-11-21T02:57:53;10.20;99.90
22491;DHT22;11412;50.802;4.350;2023-11-21T03:00:18;10.20;99.90
22491;DHT22;11412;50.802;4.350;2023-11-21T03:02:44;10.10;99.90
22491;DHT22;11412;50.802;4.350;2023-11-21T03:05:10;10.00;99.90
22491;DHT22;11412;50.802;4.350;2023-11-21T03:07:39;9.90;99.90
22491;DHT22;11412;50.802;4.350;2023-11-21T03:10:06;10.00;99.90
22491;DHT22;11412;50.802;4.350;2023-11-21T03:12:34;9.90;99.90
22491;DHT22;11412;50.802;4.350;2023-11-21T03:15:00;10.00;99.90
22491;DHT22;11412;50.802;4.350;2023-11-21T03:17:27;9.90;99.90
22491;DHT22;11412;50.802;4.350;2023-11-21T03:19:54;10.00;99.90
22491;DHT22;11412;50.802;4.350;2023-11-21T03:22:20;10.10;99.90
22491;DHT22;11412;50.802;4.350;2023-11-21T03:24:46;10.10;99.90
22491;DHT22;11412;50.802;4.350;2023-11-21T03:27:11;10.10;99.90
22491;DHT22;11412;50.802;4.350;2023-11-21T03:29:37;10.00;99.90
22491;DHT22;11412;50.802;4.350;2023-11-21T03:32:03;10.00;99.90
22491;DHT22;11412;50.802;4.350;2023-11-21T03:34:29;9.90;99.90
22491;DHT22;11412;50.802;4.350;2023-11-21T03:36:55;9.80;99.90
22491;DHT22;11412;50.802;4.350;2023-11-21T03:39:21;9.90;99.90
22491;DHT22;11412;50.802;4.350;2023-11-21T03:41:48;9.90;99.90
22491;DHT22;11412;50.802;4.350;2023-11-21T03:44:14;9.90;99.90
22491;DHT22;11412;50.802;4.350;2023-11-21T03:46:40;9.90;99.90
22491;DHT22;11412;50.802;4.350;2023-11-21T03:49:06;9.90;99.90
22491;DHT22;11412;50.802;4.350;2023-11-21T03:51:33;9.90;99.90
22491;DHT22;11412;50.802;4.350;2023-11-21T03:53:59;9.90;99.90
22491;DHT22;11412;50.802;4.350;2023-11-21T03:56:25;10.00;99.90
22491;DHT22;11412;50.802;4.350;2023-11-21T03:58:50;10.10;99.90
22491;DHT22;11412;50.802;4.350;2023-11-21T04:01:23;9.90;99.90
22491;DHT22;11412;50.802;4.350;2023-11-21T04:03:51;10.00;99.90
22491;DHT22;11412;50.802;4.350;2023-11-21T04:06:18;10.00;99.90
22491;DHT22;11412;50.802;4.350;2023-11-21T04:08:44;10.00;99.90
22491;DHT22;11412;50.802;4.350;2023-11-21T04:11:10;10.10;99.90
22491;DHT22;11412;50.802;4.350;2023-11-21T04:13:40;10.00;99.90
22491;DHT22;11412;50.802;4.350;2023-11-21T04:16:07;10.00;99.90
22491;DHT22;11412;50.802;4.350;2023-11-21T04:18:34;10.00;99.90
22491;DHT22;11412;50.802;4.350;2023-11-21T04:21:00;10.10;99.90
22491;DHT22;11412;50.802;4.350;2023-11-21T04:23:27;10.00;99.90
22491;DHT22;11412;50.802;4.350;2023-11-21T04:25:52;10.00;99.90
22491;DHT22;11412;50.802;4.350;2023-11-21T04:28:19;10.10;99.90
22491;DHT22;11412;50.802;4.350;2023-11-21T04:30:45;10.10;99.90
22491;DHT22;11412;50.802;4.350;2023-11-21T04:33:11;10.10;99.90
22491;DHT22;11412;50.802;4.350;2023-11-21T04:35:36;10.10;99.90
22491;DHT22;11412;50.802;4.350;2023-11-21T04:38:02;10.10;99.90
22491;DHT22;11412;50.802;4.350;2023-11-21T04:40:28;10.10;99.90
22491;DHT22;11412;50.802;4.350;2023-11-21T04:42:53;10.10;99.90
22491;DHT22;11412;50.802;4.350;2023-11-21T04:45:19;10.10;99.90
22491;DHT22;11412;50.802;4.350;2023-11-21T04:47:45;10.10;99.90
22491;DHT22;11412;50.802;4.350;2023-11-21T04:50:10;10.10;99.90
22491;DHT22;11412;50.802;4.350;2023-11-21T04:52:36;10.00;99.90
22491;DHT22;11412;50.802;4.350;2023-11-21T04:55:02;10.10;99.90
22491;DHT22;11412;50.802;4.350;2023-11-21T04:57:28;10.10;99.90
22491;DHT22;11412;50.802;4.350;2023-11-21T04:59:56;10.00;99.90
22491;DHT22;11412;50.802;4.350;2023-11-21T05:02:22;10.00;99.90
22491;DHT22;11412;50.802;4.350;2023-11-21T05:04:48;10.00;99.90
22491;DHT22;11412;50.802;4.350;2023-11-21T05:07:13;9.90;99.90
22491;DHT22;11412;50.802;4.350;2023-11-21T05:09:43;9.90;99.90
22491;DHT22;11412;50.802;4.350;2023-11-21T05:12:14;10.00;99.90
22491;DHT22;11412;50.802;4.350;2023-11-21T05:14:40;10.10;99.90
22491;DHT22;11412;50.802;4.350;2023-11-21T05:17:07;10.10;99.90
22491;DHT22;11412;50.802;4.350;2023-11-21T05:19:34;10.10;99.90
22491;DHT22;11412;50.802;4.350;2023-11-21T05:22:00;10.10;99.90
22491;DHT22;11412;50.802;4.350;2023-11-21T05:24:26;10.10;99.90
22491;DHT22;11412;50.802;4.350;2023-11-21T05:26:52;10.20;99.90
22491;DHT22;11412;50.802;4.350;2023-11-21T05:29:18;10.20;99.90
22491;DHT22;11412;50.802;4.350;2023-11-21T05:31:44;10.20;99.90
22491;DHT22;11412;50.802;4.350;2023-11-21T05:34:09;10.20;99.90
22491;DHT22;11412;50.802;4.350;2023-11-21T05:36:35;10.10;99.90
22491;DHT22;11412;50.802;4.350;2023-11-21T05:39:00;10.20;99.90
22491;DHT22;11412;50.802;4.350;2023-11-21T05:41:26;10.20;99.90
22491;DHT22;11412;50.802;4.350;2023-11-21T05:43:52;10.10;99.90
22491;DHT22;11412;50.802;4.350;2023-11-21T05:46:19;10.10;99.90
22491;DHT22;11412;50.802;4.350;2023-11-21T05:48:45;10.20;99.90
22491;DHT22;11412;50.802;4.350;2023-11-21T05:51:11;10.20;99.90
22491;DHT22;11412;50.802;4.350;2023-11-21T05:53:38;10.10;99.90
22491;DHT22;11412;50.802;4.350;2023-11-21T05:56:04;10.10;99.90
22491;DHT22;11412;50.802;4.350;2023-11-21T05:58:29;10.10;99.90
22491;DHT22;11412;50.802;4.350;2023-11-21T06:00:55;10.20;99.90
22491;DHT22;11412;50.802;4.350;2023-11-21T06:03:21;10.20;99.90
22491;DHT22;11412;50.802;4.350;2023-11-21T06:05:46;10.20;99.90
22491;DHT22;11412;50.802;4.350;2023-11-21T06:08:12;10.30;99.90
22491;DHT22;11412;50.802;4.350;2023-11-21T06:10:37;10.20;99.90
22491;DHT22;11412;50.802;4.350;2023-11-21T06:13:04;10.20;99.90
22491;DHT22;11412;50.802;4.350;2023-11-21T06:15:30;10.20;99.90
22491;DHT22;11412;50.802;4.350;2023-11-21T06:17:56;10.30;99.90
22491;DHT22;11412;50.802;4.350;2023-11-21T06:20:21;10.40;99.90
22491;DHT22;11412;50.802;4.350;2023-11-21T06:22:49;10.40;99.90
22491;DHT22;11412;50.802;4.350;2023-11-21T06:25:16;10.40;99.90
22491;DHT22;11412;50.802;4.350;2023-11-21T06:27:44;10.30;99.90
22491;DHT22;11412;50.802;4.350;2023-11-21T06:30:10;10.20;99.90
22491;DHT22;11412;50.802;4.350;2023-11-21T06:32:38;10.30;99.90
22491;DHT22;11412;50.802;4.350;2023-11-21T06:35:05;10.40;99.90
22491;DHT22;11412;50.802;4.350;2023-11-21T06:37:32;10.30;99.90
22491;DHT22;11412;50.802;4.350;2023-11-21T06:39:58;10.30;99.90
22491;DHT22;11412;50.802;4.350;2023-11-21T06:42:25;10.30;99.90
22491;DHT22;11412;50.802;4.350;2023-11-21T06:44:51;10.30;99.90
22491;DHT22;11412;50.802;4.350;2023-11-21T06:47:20;10.40;99.90
22491;DHT22;11412;50.802;4.350;2023-11-21T06:49:46;10.30;99.90
22491;DHT22;11412;50.802;4.350;2023-11-21T06:52:15;10.30;99.90
22491;DHT22;11412;50.802;4.350;2023-11-21T06:54:40;10.40;99.90
22491;DHT22;11412;50.802;4.350;2023-11-21T06:57:06;10.20;99.90
22491;DHT22;11412;50.802;4.350;2023-11-21T06:59:33;10.30;99.90
22491;DHT22;11412;50.802;4.350;2023-11-21T07:01:59;10.30;99.90
22491;DHT22;11412;50.802;4.350;2023-11-21T07:04:24;10.20;99.90
22491;DHT22;11412;50.802;4.350;2023-11-21T07:06:52;10.40;99.90
22491;DHT22;11412;50.802;4.350;2023-11-21T07:09:18;10.30;99.90
22491;DHT22;11412;50.802;4.350;2023-11-21T07:11:47;10.40;99.90
22491;DHT22;11412;50.802;4.350;2023-11-21T07:14:14;10.40;99.90
22491;DHT22;11412;50.802;4.350;2023-11-21T07:16:40;10.30;99.90
22491;DHT22;11412;50.802;4.350;2023-11-21T07:19:14;10.30;99.90
22491;DHT22;11412;50.802;4.350;2023-11-21T07:21:40;10.30;99.90
22491;DHT22;11412;50.802;4.350;2023-11-21T07:24:07;10.30;99.90
22491;DHT22;11412;50.802;4.350;2023-11-21T07:26:33;10.30;99.90
22491;DHT22;11412;50.802;4.350;2023-11-21T07:29:00;10.40;99.90
22491;DHT22;11412;50.802;4.350;2023-11-21T07:31:26;10.40;99.90
22491;DHT22;11412;50.802;4.350;2023-11-21T07:33:51;10.40;99.90
22491;DHT22;11412;50.802;4.350;2023-11-21T07:36:18;10.30;99.90
22491;DHT22;11412;50.802;4.350;2023-11-21T07:38:46;10.40;99.90
22491;DHT22;11412;50.802;4.350;2023-11-21T07:41:12;10.40;99.90
22491;DHT22;11412;50.802;4.350;2023-11-21T07:43:41;10.20;99.90
22491;DHT22;11412;50.802;4.350;2023-11-21T07:46:07;10.40;99.90
22491;DHT22;11412;50.802;4.350;2023-11-21T07:48:34;10.40;99.90
22491;DHT22;11412;50.802;4.350;2023-11-21T07:51:01;10.40;99.90
22491;DHT22;11412;50.802;4.350;2023-11-21T07:53:27;10.40;99.90
22491;DHT22;11412;50.802;4.350;2023-11-21T07:55:56;10.50;99.90
22491;DHT22;11412;50.802;4.350;2023-11-21T07:58:22;10.40;99.90
22491;DHT22;11412;50.802;4.350;2023-11-21T08:00:47;10.40;99.90
22491;DHT22;11412;50.802;4.350;2023-11-21T08:03:16;10.40;99.90
22491;DHT22;11412;50.802;4.350;2023-11-21T08:05:42;10.40;99.90
22491;DHT22;11412;50.802;4.350;2023-11-21T08:08:08;10.50;99.90
22491;DHT22;11412;50.802;4.350;2023-11-21T08:10:34;10.50;99.90
22491;DHT22;11412;50.802;4.350;2023-11-21T08:13:02;10.50;99.90
22491;DHT22;11412;50.802;4.350;2023-11-21T08:15:27;10.60;99.90
22491;DHT22;11412;50.802;4.350;2023-11-21T08:17:53;10.50;99.90
22491;DHT22;11412;50.802;4.350;2023-11-21T08:20:19;10.50;99.90
22491;DHT22;11412;50.802;4.350;2023-11-21T08:22:45;10.60;99.90
22491;DHT22;11412;50.802;4.350;2023-11-21T08:25:11;10.50;99.90
22491;DHT22;11412;50.802;4.350;2023-11-21T08:27:36;10.60;99.90
22491;DHT22;11412;50.802;4.350;2023-11-21T08:30:03;10.60;99.90
22491;DHT22;11412;50.802;4.350;2023-11-21T08:32:30;10.60;99.90
22491;DHT22;11412;50.802;4.350;2023-11-21T08:34:58;10.60;99.90
22491;DHT22;11412;50.802;4.350;2023-11-21T08:37:23;10.60;99.90
22491;DHT22;11412;50.802;4.350;2023-11-21T08:39:49;10.50;99.90
22491;DHT22;11412;50.802;4.350;2023-11-21T08:42:15;10.60;99.90
22491;DHT22;11412;50.802;4.350;2023-11-21T08:44:41;10.50;99.90
22491;DHT22;11412;50.802;4.350;2023-11-21T08:47:07;10.60;99.90
22491;DHT22;11412;50.802;4.350;2023-11-21T08:49:33;10.60;99.90
22491;DHT22;11412;50.802;4.350;2023-11-21T08:51:58;10.60;99.90
22491;DHT22;11412;50.802;4.350;2023-11-21T08:54:27;10.70;99.90
22491;DHT22;11412;50.802;4.350;2023-11-21T08:56:54;10.80;99.90
22491;DHT22;11412;50.802;4.350;2023-11-21T08:59:20;10.70;99.90
22491;DHT22;11412;50.802;4.350;2023-11-21T09:01:47;10.80;99.90
22491;DHT22;11412;50.802;4.350;2023-11-21T09:04:13;10.80;99.90
22491;DHT22;11412;50.802;4.350;2023-11-21T09:06:39;10.80;99.90
22491;DHT22;11412;50.802;4.350;2023-11-21T09:09:05;10.90;99.90
22491;DHT22;11412;50.802;4.350;2023-11-21T09:11:32;10.80;99.90
22491;DHT22;11412;50.802;4.350;2023-11-21T09:13:59;10.90;99.90
22491;DHT22;11412;50.802;4.350;2023-11-21T09:16:26;10.90;99.90
22491;DHT22;11412;50.802;4.350;2023-11-21T09:18:51;11.00;99.90
22491;DHT22;11412;50.802;4.350;2023-11-21T09:21:17;11.00;99.90
22491;DHT22;11412;50.802;4.350;2023-11-21T09:23:46;11.00;99.90
22491;DHT22;11412;50.802;4.350;2023-11-21T09:26:12;11.00;99.90
22491;DHT22;11412;50.802;4.350;2023-11-21T09:28:38;11.00;99.90
22491;DHT22;11412;50.802;4.350;2023-11-21T09:31:05;11.00;99.90
22491;DHT22;11412;50.802;4.350;2023-11-21T09:33:34;11.20;99.90
22491;DHT22;11412;50.802;4.350;2023-11-21T09:36:00;11.10;99.90
22491;DHT22;11412;50.802;4.350;2023-11-21T09:38:26;11.00;99.90
22491;DHT22;11412;50.802;4.350;2023-11-21T09:40:54;10.90;99.90
22491;DHT22;11412;50.802;4.350;2023-11-21T09:43:21;10.90;99.90
22491;DHT22;11412;50.802;4.350;2023-11-21T09:45:52;10.90;99.90
22491;DHT22;11412;50.802;4.350;2023-11-21T09:48:20;10.90;99.90
22491;DHT22;11412;50.802;4.350;2023-11-21T09:50:47;11.00;99.90
22491;DHT22;11412;50.802;4.350;2023-11-21T09:53:20;11.10;99.90
22491;DHT22;11412;50.802;4.350;2023-11-21T09:55:51;11.10;99.90
22491;DHT22;11412;50.802;4.350;2023-11-21T09:58:18;11.00;99.90
22491;DHT22;11412;50.802;4.350;2023-11-21T10:00:48;11.00;99.90
22491;DHT22;11412;50.802;4.350;2023-11-21T10:03:14;11.00;99.90
22491;DHT22;11412;50.802;4.350;2023-11-21T10:05:42;11.10;99.90
22491;DHT22;11412;50.802;4.350;2023-11-21T10:08:09;11.10;99.90
22491;DHT22;11412;50.802;4.350;2023-11-21T10:10:36;11.20;99.90
22491;DHT22;11412;50.802;4.350;2023-11-21T10:13:06;11.10;99.90
22491;DHT22;11412;50.802;4.350;2023-11-21T10:15:36;11.20;99.90
22491;DHT22;11412;50.802;4.350;2023-11-21T10:18:03;11.30;99.90
22491;DHT22;11412;50.802;4.350;2023-11-21T10:20:30;11.30;99.90
22491;DHT22;11412;50.802;4.350;2023-11-21T10:22:56;11.30;99.90
22491;DHT22;11412;50.802;4.350;2023-11-21T10:25:22;11.40;99.90
22491;DHT22;11412;50.802;4.350;2023-11-21T10:27:48;11.30;99.90
22491;DHT22;11412;50.802;4.350;2023-11-21T10:30:17;11.30;99.90
22491;DHT22;11412;50.802;4.350;2023-11-21T10:32:43;11.30;99.90
22491;DHT22;11412;50.802;4.350;2023-11-21T10:35:10;11.30;99.90
22491;DHT22;11412;50.802;4.350;2023-11-21T10:37:37;11.30;99.90
22491;DHT22;11412;50.802;4.350;2023-11-21T10:40:10;11.30;99.90
22491;DHT22;11412;50.802;4.350;2023-11-21T10:42:39;11.40;99.90
22491;DHT22;11412;50.802;4.350;2023-11-21T10:45:06;11.60;99.90
22491;DHT22;11412;50.802;4.350;2023-11-21T10:47:38;11.60;99.90
22491;DHT22;11412;50.802;4.350;2023-11-21T10:50:05;11.70;99.90
22491;DHT22;11412;50.802;4.350;2023-11-21T10:52:31;11.70;99.90
22491;DHT22;11412;50.802;4.350;2023-11-21T10:54:56;11.70;99.90
22491;DHT22;11412;50.802;4.350;2023-11-21T10:57:25;11.70;99.90
22491;DHT22;11412;50.802;4.350;2023-11-21T10:59:54;11.70;99.90
22491;DHT22;11412;50.802;4.350;2023-11-21T11:02:26;11.90;99.90
22491;DHT22;11412;50.802;4.350;2023-11-21T11:04:54;11.80;99.90
22491;DHT22;11412;50.802;4.350;2023-11-21T11:07:24;11.80;99.90
22491;DHT22;11412;50.802;4.350;2023-11-21T11:09:52;11.90;99.90
22491;DHT22;11412;50.802;4.350;2023-11-21T11:12:18;11.90;99.90
22491;DHT22;11412;50.802;4.350;2023-11-21T11:14:44;12.00;99.90
22491;DHT22;11412;50.802;4.350;2023-11-21T11:17:10;12.10;99.90
22491;DHT22;11412;50.802;4.350;2023-11-21T11:19:36;12.20;99.90
22491;DHT22;11412;50.802;4.350;2023-11-21T11:22:37;12.20;99.90
22491;DHT22;11412;50.802;4.350;2023-11-21T11:28:19;12.10;99.90
22491;DHT22;11412;50.802;4.350;2023-11-21T11:31:04;12.10;99.90
22491;DHT22;11412;50.802;4.350;2023-11-21T11:36:06;12.10;99.90
22491;DHT22;11412;50.802;4.350;2023-11-21T11:38:34;12.10;99.90
22491;DHT22;11412;50.802;4.350;2023-11-21T11:41:06;12.10;99.90
22491;DHT22;11412;50.802;4.350;2023-11-21T11:43:32;12.10;99.90
22491;DHT22;11412;50.802;4.350;2023-11-21T11:45:59;12.10;99.90
22491;DHT22;11412;50.802;4.350;2023-11-21T11:48:29;12.10;99.90
22491;DHT22;11412;50.802;4.350;2023-11-21T11:51:19;12.20;99.90
22491;DHT22;11412;50.802;4.350;2023-11-21T11:53:47;12.20;99.90
22491;DHT22;11412;50.802;4.350;2023-11-21T11:59:24;12.20;99.90
22491;DHT22;11412;50.802;4.350;2023-11-21T12:01:49;12.20;99.90
22491;DHT22;11412;50.802;4.350;2023-11-21T12:06:50;12.10;99.90
22491;DHT22;11412;50.802;4.350;2023-11-21T12:09:20;12.10;99.90
22491;DHT22;11412;50.802;4.350;2023-11-21T12:11:48;12.00;99.90
22491;DHT22;11412;50.802;4.350;2023-11-21T12:14:15;12.00;99.90
22491;DHT22;11412;50.802;4.350;2023-11-21T12:16:41;12.00;99.90
22491;DHT22;11412;50.802;4.350;2023-11-21T12:19:08;12.00;99.90
22491;DHT22;11412;50.802;4.350;2023-11-21T12:21:34;12.00;99.90
22491;DHT22;11412;50.802;4.350;2023-11-21T12:24:01;11.90;99.90
22491;DHT22;11412;50.802;4.350;2023-11-21T12:26:27;11.90;99.90
22491;DHT22;11412;50.802;4.350;2023-11-21T12:28:55;11.90;99.90
22491;DHT22;11412;50.802;4.350;2023-11-21T12:31:22;11.80;99.90
22491;DHT22;11412;50.802;4.350;2023-11-21T12:33:47;11.80;99.90
22491;DHT22;11412;50.802;4.350;2023-11-21T12:36:13;11.90;99.90
22491;DHT22;11412;50.802;4.350;2023-11-21T12:38:39;11.90;99.90
22491;DHT22;11412;50.802;4.350;2023-11-21T12:41:05;11.90;99.90
22491;DHT22;11412;50.802;4.350;2023-11-21T12:43:32;11.80;99.90
22491;DHT22;11412;50.802;4.350;2023-11-21T12:46:08;11.90;99.90
22491;DHT22;11412;50.802;4.350;2023-11-21T12:48:37;12.10;99.90
22491;DHT22;11412;50.802;4.350;2023-11-21T12:51:05;12.10;99.90
22491;DHT22;11412;50.802;4.350;2023-11-21T12:53:32;12.20;99.90
22491;DHT22;11412;50.802;4.350;2023-11-21T12:56:05;12.20;99.90
22491;DHT22;11412;50.802;4.350;2023-11-21T12:58:31;12.20;99.90
22491;DHT22;11412;50.802;4.350;2023-11-21T13:00:59;12.20;99.90
22491;DHT22;11412;50.802;4.350;2023-11-21T13:03:25;12.10;99.90
22491;DHT22;11412;50.802;4.350;2023-11-21T13:05:53;12.20;99.90
22491;DHT22;11412;50.802;4.350;2023-11-21T13:08:23;12.20;99.90
22491;DHT22;11412;50.802;4.350;2023-11-21T13:10:52;12.30;99.90
22491;DHT22;11412;50.802;4.350;2023-11-21T13:13:19;12.20;99.90
22491;DHT22;11412;50.802;4.350;2023-11-21T13:18:16;12.10;99.90
22491;DHT22;11412;50.802;4.350;2023-11-21T13:20:43;12.00;99.90
22491;DHT22;11412;50.802;4.350;2023-11-21T13:23:10;12.00;99.90
22491;DHT22;11412;50.802;4.350;2023-11-21T13:25:40;12.10;99.90
22491;DHT22;11412;50.802;4.350;2023-11-21T13:28:11;12.10;99.90
22491;DHT22;11412;50.802;4.350;2023-11-21T13:30:37;12.00;99.90
22491;DHT22;11412;50.802;4.350;2023-11-21T13:33:06;12.00;99.90
22491;DHT22;11412;50.802;4.350;2023-11-21T13:35:34;12.10;99.90
22491;DHT22;11412;50.802;4.350;2023-11-21T13:38:13;12.20;99.90
22491;DHT22;11412;50.802;4.350;2023-11-21T13:40:41;12.10;99.90
22491;DHT22;11412;50.802;4.350;2023-11-21T13:43:17;12.00;99.90
22491;DHT22;11412;50.802;4.350;2023-11-21T13:45:47;12.00;99.90
22491;DHT22;11412;50.802;4.350;2023-11-21T13:48:15;12.00;99.90
22491;DHT22;11412;50.802;4.350;2023-11-21T13:50:48;12.00;99.90
22491;DHT22;11412;50.802;4.350;2023-11-21T13:53:21;12.00;99.90
22491;DHT22;11412;50.802;4.350;2023-11-21T13:55:53;12.10;99.90
22491;DHT22;11412;50.802;4.350;2023-11-21T13:58:25;12.10;99.90
22491;DHT22;11412;50.802;4.350;2023-11-21T14:01:10;12.10;99.90
22491;DHT22;11412;50.802;4.350;2023-11-21T14:03:54;12.00;99.90
22491;DHT22;11412;50.802;4.350;2023-11-21T14:06:26;11.90;99.90
22491;DHT22;11412;50.802;4.350;2023-11-21T14:09:00;12.00;99.90
22491;DHT22;11412;50.802;4.350;2023-11-21T14:11:31;11.90;99.90
22491;DHT22;11412;50.802;4.350;2023-11-21T14:13:56;12.00;99.90
22491;DHT22;11412;50.802;4.350;2023-11-21T14:16:25;12.00;99.90
22491;DHT22;11412;50.802;4.350;2023-11-21T14:18:50;12.00;99.90
22491;DHT22;11412;50.802;4.350;2023-11-21T14:21:27;11.90;99.90
22491;DHT22;11412;50.802;4.350;2023-11-21T14:23:52;11.80;99.90
22491;DHT22;11412;50.802;4.350;2023-11-21T14:26:20;11.80;99.90
22491;DHT22;11412;50.802;4.350;2023-11-21T14:28:46;11.80;99.90
22491;DHT22;11412;50.802;4.350;2023-11-21T14:31:14;11.80;99.90
22491;DHT22;11412;50.802;4.350;2023-11-21T14:33:43;11.80;99.90
22491;DHT22;11412;50.802;4.350;2023-11-21T14:36:09;11.80;99.90
22491;DHT22;11412;50.802;4.350;2023-11-21T14:38:38;11.70;99.90
22491;DHT22;11412;50.802;4.350;2023-11-21T14:41:05;11.70;99.90
22491;DHT22;11412;50.802;4.350;2023-11-21T14:43:37;11.60;99.90
22491;DHT22;11412;50.802;4.350;2023-11-21T14:46:04;11.60;99.90
22491;DHT22;11412;50.802;4.350;2023-11-21T14:48:34;11.60;99.90
22491;DHT22;11412;50.802;4.350;2023-11-21T14:51:11;11.60;99.90
22491;DHT22;11412;50.802;4.350;2023-11-21T14:53:59;11.60;99.90
22491;DHT22;11412;50.802;4.350;2023-11-21T14:56:35;11.60;99.90
22491;DHT22;11412;50.802;4.350;2023-11-21T14:59:03;11.70;99.90
22491;DHT22;11412;50.802;4.350;2023-11-21T15:01:38;11.70;99.90
22491;DHT22;11412;50.802;4.350;2023-11-21T15:04:21;11.60;99.90
22491;DHT22;11412;50.802;4.350;2023-11-21T15:07:04;11.70;99.90
22491;DHT22;11412;50.802;4.350;2023-11-21T15:09:30;11.60;99.90
22491;DHT22;11412;50.802;4.350;2023-11-21T15:12:02;11.50;99.90
22491;DHT22;11412;50.802;4.350;2023-11-21T15:14:42;11.50;99.90
22491;DHT22;11412;50.802;4.350;2023-11-21T15:17:08;11.60;99.90
22491;DHT22;11412;50.802;4.350;2023-11-21T15:19:34;11.50;99.90
22491;DHT22;11412;50.802;4.350;2023-11-21T15:22:02;11.50;99.90
22491;DHT22;11412;50.802;4.350;2023-11-21T15:24:27;11.40;99.90
22491;DHT22;11412;50.802;4.350;2023-11-21T15:26:53;11.50;99.90
22491;DHT22;11412;50.802;4.350;2023-11-21T15:29:19;11.50;99.90
22491;DHT22;11412;50.802;4.350;2023-11-21T15:31:47;11.60;99.90
22491;DHT22;11412;50.802;4.350;2023-11-21T15:34:17;11.60;99.90
22491;DHT22;11412;50.802;4.350;2023-11-21T15:36:42;11.60;99.90
22491;DHT22;11412;50.802;4.350;2023-11-21T15:39:09;11.50;99.90
22491;DHT22;11412;50.802;4.350;2023-11-21T15:41:39;11.60;99.90
22491;DHT22;11412;50.802;4.350;2023-11-21T15:44:08;11.60;99.90
22491;DHT22;11412;50.802;4.350;2023-11-21T15:46:37;11.50;99.90
22491;DHT22;11412;50.802;4.350;2023-11-21T15:49:05;11.50;99.90